Time;durP1;ratioP1;P1;durP2;ratioP2;P2;SDS_P1;SDS_P2;PMS_P1;PMS_P2;Temp;Humidity;BMP_temperature;BMP_pressure;BME280_temperature;BME280_humidity;BME280_pressure;Samples;Min_cycle;Max_cycle;Signal;HPM_P1;HPM_P2
2021/12/16 00:08:24;;;;;;;59.72;41.60;;;;;;;8.01;98.65;103364.81;5079484;28;20036;-71
2021/12/16 00:30:36;;;;;;;55.72;40.90;;;;;;;8.01;98.79;103368.34;5086023;28;20532;-71
2021/12/16 00:35:43;;;;;;;55.95;39.85;;;;;;;8.01;98.60;103371.00;5092276;28;20043;-71
2021/12/16 00:38:09;;;;;;;59.93;41.50;;;;;;;8.02;98.92;103372.72;5085771;28;20054;-71
2021/12/16 00:40:39;;;;;;;58.47;40.75;;;;;;;8.02;98.93;103371.84;5091829;28;20282;-71
2021/12/16 00:43:14;;;;;;;56.45;39.10;;;;;;;8.01;99.00;103371.00;5091738;28;20055;-71
2021/12/16 00:55:55;;;;;;;57.20;40.47;;;;;;;7.99;98.93;103369.28;5108757;28;20051;-71
2021/12/16 00:58:28;;;;;;;57.95;39.45;;;;;;;7.98;98.95;103371.06;5109616;28;20088;-71
2021/12/16 01:01:07;;;;;;;55.42;39.28;;;;;;;7.98;99.10;103376.38;5111994;28;20051;-71
2021/12/16 01:03:43;;;;;;;55.53;39.00;;;;;;;8.00;99.07;103373.69;5111742;28;20058;-71
2021/12/16 01:06:25;;;;;;;55.50;38.58;;;;;;;7.98;99.06;103376.38;5097497;28;20059;-71
2021/12/16 01:09:12;;;;;;;57.55;38.97;;;;;;;7.99;98.80;103382.53;5090055;28;20506;-71
2021/12/16 01:34:05;;;;;;;58.03;39.17;;;;;;;7.98;99.02;103384.31;5069226;28;20093;-71
2021/12/16 01:39:50;;;;;;;57.65;38.67;;;;;;;7.99;99.37;103393.09;5069165;28;20502;-71
2021/12/16 01:50:05;;;;;;;52.60;38.17;;;;;;;8.00;99.30;103400.16;5100327;27;20027;-70
2021/12/16 01:55:20;;;;;;;56.20;38.28;;;;;;;7.99;99.37;103403.69;5111150;28;20039;-70
2021/12/16 01:57:53;;;;;;;56.45;39.67;;;;;;;7.99;99.51;103403.69;5106517;28;20516;-71
2021/12/16 02:00:43;;;;;;;56.17;39.72;;;;;;;7.99;99.49;103409.84;5100671;28;20038;-70
2021/12/16 02:03:08;;;;;;;50.80;37.15;;;;;;;7.99;99.31;103406.34;5089419;28;20048;-71
2021/12/16 02:06:10;;;;;;;54.50;39.05;;;;;;;7.97;99.56;103407.22;5111009;28;20080;-70
2021/12/16 02:08:39;;;;;;;54.72;38.72;;;;;;;7.98;99.61;103410.78;5083327;28;20020;-71
2021/12/16 02:11:31;;;;;;;50.83;37.17;;;;;;;7.98;99.45;103418.72;5110846;28;20026;-70
2021/12/16 02:33:33;;;;;;;53.33;38.65;;;;;;;8.00;99.35;103423.97;5090429;28;20046;-70
2021/12/16 02:36:02;;;;;;;49.38;37.83;;;;;;;7.99;99.21;103422.22;5090252;28;20061;-71
2021/12/16 02:38:31;;;;;;;51.65;36.28;;;;;;;7.95;99.21;103422.28;5113003;28;20049;-71
2021/12/16 02:40:58;;;;;;;52.17;37.38;;;;;;;7.99;99.53;103431.03;5103306;28;20034;-70
2021/12/16 02:43:54;;;;;;;54.25;36.95;;;;;;;8.00;99.42;103423.97;5113468;28;20032;-70
2021/12/16 02:48:55;;;;;;;50.30;36.42;;;;;;;8.00;99.41;103431.91;5098363;28;20059;-70
2021/12/16 02:51:26;;;;;;;49.28;37.17;;;;;;;8.00;99.42;103438.06;5105607;28;20016;-70
2021/12/16 02:53:56;;;;;;;56.92;37.22;;;;;;;7.97;99.48;103427.53;5104836;28;20039;-70
2021/12/16 02:56:21;;;;;;;;;;;;;;;8.07;99.27;103441.44;5089615;28;20089;-70
2021/12/16 02:58:53;;;;;;;51.17;34.67;;;;;;;8.00;99.40;103440.72;5097130;28;19912;-71
2021/12/16 03:01:33;;;;;;;50.45;36.75;;;;;;;8.00;99.36;103439.84;5100459;28;20135;-71
2021/12/16 03:04:00;;;;;;;49.75;37.47;;;;;;;7.99;99.61;103430.16;5104147;28;20130;-70
2021/12/16 03:06:29;;;;;;;47.22;34.78;;;;;;;7.99;99.28;103431.03;5114122;28;20032;-71
2021/12/16 03:08:55;;;;;;;51.92;36.20;;;;;;;7.97;99.09;103420.47;5114170;28;20032;-71
2021/12/16 03:17:04;;;;;;;49.15;36.92;;;;;;;7.99;99.50;103430.16;5114044;28;20035;-71
2021/12/16 03:22:00;;;;;;;47.60;35.33;;;;;;;7.97;99.47;103428.41;5099542;28;20040;-70
2021/12/16 03:25:03;;;;;;;49.97;36.40;;;;;;;7.97;99.36;103419.59;5111916;27;20031;-71
2021/12/16 03:27:43;;;;;;;54.83;36.35;;;;;;;7.96;99.44;103434.63;5111338;28;20059;-70
2021/12/16 03:30:53;;;;;;;52.17;35.55;;;;;;;7.97;99.55;103432.84;5101052;28;20028;-70
2021/12/16 03:36:06;;;;;;;52.03;36.28;;;;;;;7.97;99.90;103435.47;5113692;28;20047;-70
2021/12/16 03:38:37;;;;;;;50.17;36.95;;;;;;;7.96;99.69;103439.91;5113650;28;20027;-70
2021/12/16 03:41:05;;;;;;;51.40;36.38;;;;;;;7.95;99.78;103430.22;5106824;28;20032;-70
2021/12/16 03:43:32;;;;;;;51.00;36.25;;;;;;;7.96;99.65;103433.78;5113137;28;20051;-70
2021/12/16 03:48:37;;;;;;;;;;;;;;;8.05;99.49;103437.97;5113895;28;20223;-71
2021/12/16 03:51:10;;;;;;;47.65;34.72;;;;;;;7.96;99.35;103437.28;5105568;28;19934;-71
2021/12/16 03:53:36;;;;;;;49.78;35.78;;;;;;;7.95;99.42;103440.81;5113155;28;20057;-70
2021/12/16 03:56:02;;;;;;;48.00;34.92;;;;;;;7.96;99.64;103450.50;5107997;28;20032;-71
2021/12/16 03:58:28;;;;;;;53.05;37.08;;;;;;;7.95;99.61;103443.47;5088353;28;20035;-70
2021/12/16 04:00:57;;;;;;;52.50;35.70;;;;;;;7.96;99.68;103452.28;5112953;28;20042;-70
2021/12/16 04:03:23;;;;;;;52.72;35.40;;;;;;;7.96;99.68;103460.22;5107488;28;20397;-71
2021/12/16 04:05:49;;;;;;;50.67;35.92;;;;;;;7.95;99.62;103456.69;5090405;28;20024;-71
2021/12/16 04:08:15;;;;;;;44.42;35.08;;;;;;;7.95;99.66;103451.41;5107203;28;20385;-71
2021/12/16 04:10:47;;;;;;;51.85;36.92;;;;;;;7.97;99.91;103454.00;5103425;28;20115;-71
2021/12/16 04:13:15;;;;;;;53.80;36.85;;;;;;;7.95;99.86;103458.47;5105035;28;20502;-70
2021/12/16 04:15:41;;;;;;;51.92;36.75;;;;;;;7.95;99.69;103454.03;5113007;28;20027;-71
2021/12/16 04:18:06;;;;;;;52.70;35.92;;;;;;;7.94;99.83;103454.06;5112617;28;20436;-71
2021/12/16 04:20:32;;;;;;;52.22;36.03;;;;;;;7.96;99.79;103462.88;5092803;28;20453;-71
2021/12/16 04:22:59;;;;;;;52.05;36.05;;;;;;;7.94;99.92;103462.03;5112636;28;20119;-71
2021/12/16 04:25:30;;;;;;;55.05;36.78;;;;;;;7.95;100.00;103451.41;5112441;28;20055;-70
2021/12/16 04:27:59;;;;;;;50.97;36.60;;;;;;;7.90;100.00;103450.63;5112545;28;20027;-71
2021/12/16 04:30:28;;;;;;;50.85;35.25;;;;;;;7.93;99.84;103457.66;5104891;28;20066;-70
2021/12/16 04:32:53;;;;;;;51.17;36.07;;;;;;;7.93;99.97;103455.00;5112451;28;20488;-70
2021/12/16 04:35:19;;;;;;;51.97;35.85;;;;;;;7.93;99.92;103455.88;5112468;28;20032;-71
2021/12/16 04:37:48;;;;;;;53.63;37.53;;;;;;;7.93;100.00;103447.94;5103423;28;20076;-70
2021/12/16 04:40:16;;;;;;;49.58;35.20;;;;;;;7.93;99.88;103447.94;5107237;28;20086;-71
2021/12/16 04:42:43;;;;;;;52.10;35.92;;;;;;;7.92;100.00;103448.81;5107905;28;20034;-70
2021/12/16 04:45:13;;;;;;;58.10;36.88;;;;;;;7.92;100.00;103448.81;5107257;28;20028;-70
2021/12/16 04:47:38;;;;;;;;;;;;;;;8.00;99.82;103446.00;5111266;28;20023;-71
2021/12/16 04:50:06;;;;;;;50.20;35.10;;;;;;;7.92;99.67;103443.53;5111828;28;19914;-70
2021/12/16 04:52:32;;;;;;;53.70;35.28;;;;;;;7.90;99.62;103448.00;5101048;28;20093;-70
2021/12/16 04:54:57;;;;;;;48.55;35.33;;;;;;;7.90;99.69;103445.34;5104353;28;20028;-70
2021/12/16 04:57:22;;;;;;;54.50;36.78;;;;;;;7.88;99.61;103448.94;5102871;28;20024;-71
2021/12/16 04:59:48;;;;;;;51.42;36.47;;;;;;;7.84;99.68;103447.28;5091414;28;20458;-70
2021/12/16 05:02:17;;;;;;;52.33;35.65;;;;;;;7.84;99.63;103444.63;5085830;28;20039;-70
2021/12/16 05:04:43;;;;;;;50.25;35.55;;;;;;;7.82;99.54;103449.09;5088317;28;20127;-70
2021/12/16 05:07:09;;;;;;;47.83;35.60;;;;;;;7.82;99.61;103455.25;5108720;28;20165;-70
2021/12/16 05:12:07;;;;;;;51.42;35.72;;;;;;;7.76;99.52;103448.31;5084773;28;20039;-70
2021/12/16 05:14:32;;;;;;;53.97;35.53;;;;;;;7.74;99.65;103446.59;5109502;28;20029;-71
2021/12/16 05:16:58;;;;;;;48.30;35.13;;;;;;;7.73;99.39;103447.53;5111895;27;20031;-71
2021/12/16 05:19:23;;;;;;;49.70;34.58;;;;;;;7.72;99.37;103453.72;5100876;28;20340;-71
2021/12/16 05:21:57;;;;;;;46.10;33.78;;;;;;;7.70;99.13;103455.53;5070904;28;20451;-71
2021/12/16 05:24:28;;;;;;;54.17;34.85;;;;;;;7.70;98.97;103452.88;5070678;28;20040;-71
2021/12/16 05:26:56;;;;;;;54.90;34.88;;;;;;;7.65;99.16;103454.75;5071027;28;20025;-70
2021/12/16 05:29:22;;;;;;;47.80;35.03;;;;;;;7.62;99.05;103458.34;5083110;28;20114;-71
2021/12/16 05:31:49;;;;;;;48.22;33.90;;;;;;;7.59;98.87;103459.28;5090184;28;20545;-70
2021/12/16 05:34:14;;;;;;;48.88;32.92;;;;;;;7.55;98.90;103462.88;5088672;28;20042;-70
2021/12/16 05:36:40;;;;;;;48.13;34.63;;;;;;;7.52;98.79;103467.38;5085044;28;20032;-71
2021/12/16 05:39:06;;;;;;;49.55;34.60;;;;;;;7.48;98.38;103471.88;5069273;28;20078;-72
2021/12/16 05:41:32;;;;;;;43.58;33.50;;;;;;;7.45;98.53;103471.94;5069618;28;20028;-72
2021/12/16 05:43:58;;;;;;;46.78;33.42;;;;;;;7.44;98.51;103469.31;5070128;28;20029;-71
2021/12/16 05:46:25;;;;;;;45.58;33.47;;;;;;;7.40;98.53;103482.59;5070193;28;20032;-71
2021/12/16 05:48:51;;;;;;;46.83;32.67;;;;;;;7.36;98.39;103478.28;5070911;28;20107;-71
2021/12/16 05:51:24;;;;;;;47.78;33.22;;;;;;;7.32;98.43;103481.03;5070261;28;20447;-71
2021/12/16 05:53:51;;;;;;;46.30;33.63;;;;;;;7.29;98.25;103486.38;5069988;28;20032;-71
2021/12/16 05:56:17;;;;;;;49.05;33.70;;;;;;;7.25;98.17;103487.34;5069503;28;20054;-71
2021/12/16 05:58:43;;;;;;;45.67;32.70;;;;;;;7.18;97.80;103487.47;5084612;28;20032;-71
2021/12/16 06:01:16;;;;;;;43.47;33.22;;;;;;;7.09;98.25;103484.13;5090548;28;20066;-71
2021/12/16 06:03:42;;;;;;;43.65;31.08;;;;;;;7.09;97.62;103499.97;5088827;28;20052;-71
2021/12/16 06:06:09;;;;;;;42.55;31.77;;;;;;;7.05;97.60;103496.53;5104805;28;20043;-71
2021/12/16 06:08:35;;;;;;;45.13;31.00;;;;;;;6.98;97.16;103506.34;5110988;28;20051;-71
2021/12/16 06:11:15;;;;;;;44.63;30.50;;;;;;;6.92;97.03;103508.22;5101578;28;20486;-70
2021/12/16 06:14:00;;;;;;;39.80;30.45;;;;;;;6.88;97.15;103515.34;5110648;28;20118;-70
2021/12/16 06:27:26;;;;;;;40.50;30.02;;;;;;;6.64;96.62;103521.91;5110996;28;20050;-69
2021/12/16 06:29:51;;;;;;;38.75;28.88;;;;;;;6.61;96.87;103516.69;5098018;28;20028;-70
2021/12/16 06:32:17;;;;;;;36.60;28.60;;;;;;;6.51;96.43;103513.31;5095628;28;20032;-72
2021/12/16 06:34:43;;;;;;;38.75;29.80;;;;;;;6.48;96.61;103523.94;5093274;28;20067;-71
2021/12/16 06:37:09;;;;;;;41.42;28.33;;;;;;;6.46;96.71;103533.66;5073791;28;20048;-71
2021/12/16 06:39:35;;;;;;;36.88;28.27;;;;;;;6.40;96.42;103526.69;5069638;28;20024;-72
2021/12/16 06:42:04;;;;;;;40.00;28.05;;;;;;;6.35;96.29;103522.41;5069411;28;20032;-71
2021/12/16 06:44:36;;;;;;;45.92;31.30;;;;;;;6.33;96.55;103521.53;5073763;28;20068;-71
2021/12/16 06:47:07;;;;;;;44.50;30.38;;;;;;;6.25;96.21;103519.03;5087634;28;20386;-71
2021/12/16 06:49:35;;;;;;;44.13;30.33;;;;;;;6.24;96.69;103527.84;5090174;28;20016;-71
2021/12/16 06:52:04;;;;;;;43.40;31.17;;;;;;;6.18;96.55;103528.81;5085752;28;20024;-71
2021/12/16 06:57:34;;;;;;;36.67;27.63;;;;;;;6.12;95.86;103531.53;5073902;27;19951;-71
2021/12/16 07:00:22;;;;;;;38.80;28.42;;;;;;;6.06;95.74;103535.16;5077358;28;20074;-71
2021/12/16 07:02:59;;;;;;;37.65;28.27;;;;;;;6.00;96.13;103537.84;5074386;28;20044;-71
2021/12/16 07:05:30;;;;;;;37.20;27.42;;;;;;;5.98;96.23;103539.66;5072924;28;20028;-71
2021/12/16 07:07:56;;;;;;;40.40;28.95;;;;;;;5.93;96.62;103542.31;5075796;28;20064;-71
2021/12/16 07:10:22;;;;;;;37.35;27.45;;;;;;;5.87;96.11;103534.47;5076046;28;20028;-71
2021/12/16 07:12:49;;;;;;;43.55;30.13;;;;;;;5.87;96.58;103546.81;5075043;27;20093;-72
2021/12/16 07:15:23;;;;;;;38.03;27.42;;;;;;;5.85;96.73;103554.72;5077352;28;20027;-72
2021/12/16 07:17:50;;;;;;;38.63;29.05;;;;;;;5.78;96.67;103553.06;5076844;27;20036;-72
2021/12/16 07:20:18;;;;;;;40.20;29.60;;;;;;;5.74;96.76;103561.91;5080237;28;20480;-71
2021/12/16 07:22:44;;;;;;;39.55;30.00;;;;;;;5.71;96.48;103570.75;5073506;27;20070;-71
2021/12/16 07:25:09;;;;;;;40.03;28.67;;;;;;;5.68;96.66;103578.69;5075338;28;20145;-71
2021/12/16 07:27:36;;;;;;;38.97;28.90;;;;;;;5.63;96.21;103571.69;5074460;27;20051;-71
2021/12/16 07:30:08;;;;;;;39.33;27.75;;;;;;;5.60;96.16;103569.13;5076140;28;20410;-71
2021/12/16 07:32:35;;;;;;;45.03;31.50;;;;;;;5.59;96.84;103577.91;5079533;27;20508;-71
2021/12/16 07:35:01;;;;;;;39.53;29.10;;;;;;;5.55;96.57;103591.13;5078737;28;20478;-71
2021/12/16 07:37:26;;;;;;;38.50;29.63;;;;;;;5.51;96.58;103597.34;5079577;28;20131;-71
2021/12/16 07:39:52;;;;;;;39.65;30.70;;;;;;;5.50;96.83;103600.00;5074990;28;20020;-71
2021/12/16 07:42:25;;;;;;;45.67;31.63;;;;;;;5.49;97.67;103598.22;5076846;28;20214;-71
2021/12/16 07:44:51;;;;;;;48.15;32.85;;;;;;;5.47;97.47;103605.28;5077724;28;20060;-72
2021/12/16 07:47:16;;;;;;;48.97;31.85;;;;;;;5.44;97.56;103605.31;5076865;28;20062;-71
2021/12/16 07:49:43;;;;;;;38.72;30.10;;;;;;;5.43;97.81;103604.47;5078536;28;20028;-72
2021/12/16 07:52:16;;;;;;;37.55;28.83;;;;;;;5.38;97.32;103607.13;5076517;28;20039;-71
2021/12/16 07:54:41;;;;;;;41.10;28.05;;;;;;;5.38;97.12;103617.69;5080980;28;20035;-71
2021/12/16 07:57:07;;;;;;;36.15;27.65;;;;;;;5.36;97.37;103630.00;5077870;28;20398;-72
2021/12/16 07:59:35;;;;;;;39.70;28.67;;;;;;;5.32;97.30;103632.69;5079300;28;20017;-72
2021/12/16 08:02:01;;;;;;;39.13;27.10;;;;;;;5.25;96.63;103631.00;5077489;28;20556;-72
2021/12/16 08:04:29;;;;;;;38.50;28.95;;;;;;;5.27;97.00;103645.88;5073599;28;20049;-72
2021/12/16 08:06:58;;;;;;;40.20;29.27;;;;;;;5.20;97.04;103646.84;5073598;28;20033;-72
2021/12/16 08:09:24;;;;;;;37.83;27.73;;;;;;;5.21;96.78;103642.44;5072901;28;20036;-71
2021/12/16 08:11:51;;;;;;;41.58;29.65;;;;;;;5.18;97.30;103641.59;5088188;28;20036;-71
2021/12/16 08:14:18;;;;;;;39.03;28.63;;;;;;;5.17;97.27;103657.41;5074553;28;20086;-72
2021/12/16 08:16:44;;;;;;;42.40;30.63;;;;;;;5.15;97.09;103660.06;5076460;28;20592;-71
2021/12/16 08:19:10;;;;;;;40.90;28.65;;;;;;;5.15;97.27;103667.09;5073525;28;20749;-71
2021/12/16 08:21:36;;;;;;;39.10;28.75;;;;;;;5.13;97.38;103656.56;5074983;28;20016;-71
2021/12/16 08:24:04;;;;;;;40.75;29.08;;;;;;;5.10;97.02;103661.84;5077994;27;20087;-72
2021/12/16 08:26:31;;;;;;;39.80;29.17;;;;;;;5.10;97.29;103666.25;5074197;28;20029;-70
2021/12/16 08:28:56;;;;;;;39.72;29.88;;;;;;;5.07;97.37;103676.81;5091733;27;20589;-70
2021/12/16 08:31:23;;;;;;;43.35;28.95;;;;;;;5.06;97.59;103673.28;5101212;28;20034;-70
2021/12/16 08:33:49;;;;;;;37.67;28.83;;;;;;;5.05;97.19;103679.47;5108212;28;20041;-67
2021/12/16 08:36:15;;;;;;;42.70;28.80;;;;;;;5.06;97.36;103688.22;5109522;28;20096;-68
2021/12/16 08:38:41;;;;;;;38.90;28.42;;;;;;;5.05;97.75;103683.88;5103553;28;20069;-70
2021/12/16 08:41:11;;;;;;;41.55;28.95;;;;;;;5.01;98.06;103669.81;5103828;28;20077;-71
2021/12/16 08:43:40;;;;;;;37.30;27.42;;;;;;;5.04;97.74;103684.75;5102872;28;20038;-72
2021/12/16 08:46:07;;;;;;;41.38;30.30;;;;;;;5.04;97.86;103690.88;5104705;28;20028;-71
2021/12/16 08:48:33;;;;;;;43.13;28.48;;;;;;;5.05;98.06;103687.38;5092113;28;20390;-71
2021/12/16 08:50:58;;;;;;;42.47;29.80;;;;;;;5.04;97.81;103680.34;5111099;28;20020;-70
2021/12/16 08:53:24;;;;;;;42.00;30.13;;;;;;;5.07;98.11;103684.72;5111009;27;20027;-70
2021/12/16 08:55:51;;;;;;;41.60;30.70;;;;;;;5.10;98.59;103695.25;5103934;28;20035;-68
2021/12/16 08:58:17;;;;;;;42.65;30.38;;;;;;;5.14;99.04;103697.81;5110914;28;20692;-70
2021/12/16 09:00:46;;;;;;;45.70;30.80;;;;;;;5.17;99.10;103700.44;5106994;28;20028;-68
2021/12/16 09:03:12;;;;;;;49.83;29.52;;;;;;;5.17;98.91;103710.09;5097524;27;20278;-69
2021/12/16 09:05:38;;;;;;;42.45;31.15;;;;;;;5.21;99.23;103719.72;5072742;28;20020;-70
2021/12/16 09:08:04;;;;;;;43.53;30.30;;;;;;;5.24;99.17;103719.69;5072409;28;20107;-71
2021/12/16 09:10:33;;;;;;;53.33;32.65;;;;;;;5.34;99.82;103712.59;5071534;28;20398;-71
2021/12/16 09:13:04;;;;;;;44.28;31.95;;;;;;;5.40;99.90;103709.91;5069959;28;20429;-71
2021/12/16 09:15:48;;;;;;;51.15;33.67;;;;;;;5.51;100.00;103715.97;5068963;28;20145;-71
2021/12/16 09:18:16;;;;;;;53.08;33.10;;;;;;;5.61;100.00;103710.59;5074450;28;20046;-71
2021/12/16 09:20:42;;;;;;;53.33;33.90;;;;;;;5.69;100.00;103716.69;5070088;28;20028;-70
2021/12/16 09:23:09;;;;;;;54.05;33.63;;;;;;;5.80;100.00;103713.94;5070186;28;20038;-71
2021/12/16 09:25:35;;;;;;;49.70;34.13;;;;;;;5.90;100.00;103719.09;5109344;28;20070;-70
2021/12/16 09:28:01;;;;;;;52.85;35.42;;;;;;;6.02;100.00;103719.88;5088006;28;20056;-71
2021/12/16 09:30:27;;;;;;;57.70;38.15;;;;;;;6.10;100.00;103712.75;5080483;28;20062;-71
2021/12/16 09:33:00;;;;;;;57.28;38.65;;;;;;;6.25;100.00;103711.72;5082858;28;20040;-70
2021/12/16 09:35:27;;;;;;;60.90;39.50;;;;;;;6.32;100.00;103713.38;5080956;28;20030;-70
2021/12/16 09:37:54;;;;;;;56.92;39.88;;;;;;;6.51;100.00;103721.03;5090250;28;20480;-71
2021/12/16 09:40:24;;;;;;;69.85;45.33;;;;;;;6.62;100.00;103712.09;5091261;28;20038;-70
2021/12/16 09:42:51;;;;;;;60.75;40.35;;;;;;;6.75;100.00;103714.56;5085164;28;20027;-71
2021/12/16 09:45:18;;;;;;;62.00;42.65;;;;;;;6.82;100.00;103729.44;5089891;28;20023;-70
2021/12/16 09:47:44;;;;;;;70.03;45.72;;;;;;;6.97;100.00;103720.41;5089457;28;20012;-70
2021/12/16 09:50:11;;;;;;;72.38;45.67;;;;;;;7.06;100.00;103716.75;5110464;28;20028;-70
2021/12/16 09:52:37;;;;;;;76.43;48.65;;;;;;;7.19;100.00;103727.13;5098582;28;20378;-70
2021/12/16 09:55:03;;;;;;;75.65;49.42;;;;;;;7.35;100.00;103734.78;5107076;28;20020;-70
2021/12/16 09:57:29;;;;;;;70.85;47.83;;;;;;;7.41;100.00;103716.16;5111152;28;20039;-70
2021/12/16 09:59:55;;;;;;;71.13;48.78;;;;;;;7.54;100.00;103717.72;5107523;28;20047;-70
2021/12/16 10:02:21;;;;;;;82.38;53.60;;;;;;;7.64;100.00;103712.25;5111072;28;20421;-69
2021/12/16 10:04:48;;;;;;;73.18;50.13;;;;;;;7.73;100.00;103712.94;5094682;28;20055;-70
2021/12/16 10:07:24;;;;;;;76.78;54.40;;;;;;;7.82;100.00;103725.13;5111358;28;20039;-68
2021/12/16 10:09:51;;;;;;;68.68;50.70;;;;;;;7.90;100.00;103728.50;5064278;27;20040;-68
2021/12/16 10:12:21;;;;;;;80.03;53.17;;;;;;;8.03;100.00;103715.06;5105119;28;20032;-68
2021/12/16 10:15:03;;;;;;;75.18;53.05;;;;;;;8.06;100.00;103710.56;5102942;27;20040;-68
2021/12/16 10:17:34;;;;;;;67.25;50.08;;;;;;;8.19;100.00;103729.69;5095558;28;20043;-68
2021/12/16 10:20:09;;;;;;;60.13;46.67;;;;;;;8.31;100.00;103726.81;5094633;27;20044;-68
2021/12/16 10:22:41;;;;;;;63.65;46.40;;;;;;;8.36;100.00;103708.19;5096131;28;20032;-68
2021/12/16 10:25:32;;;;;;;68.63;48.30;;;;;;;8.49;100.00;103715.00;5109855;27;20050;-68
2021/12/16 10:28:04;;;;;;;67.43;50.78;;;;;;;8.60;100.00;103721.84;5082258;28;20538;-68
2021/12/16 10:31:02;;;;;;;63.35;46.03;;;;;;;8.69;100.00;103724.25;5099417;28;20135;-68
2021/12/16 10:33:33;;;;;;;70.35;46.92;;;;;;;8.81;100.00;103723.13;5075509;28;20035;-68
2021/12/16 10:36:13;;;;;;;60.03;44.35;;;;;;;8.85;100.00;103714.19;5082082;28;20031;-68
2021/12/16 10:38:59;;;;;;;62.28;44.45;;;;;;;8.99;100.00;103714.75;5072316;28;20025;-68
2021/12/16 10:41:32;;;;;;;59.63;43.63;;;;;;;9.07;100.00;103715.41;5075930;28;20385;-68
2021/12/16 10:44:05;;;;;;;57.58;44.35;;;;;;;9.18;100.00;103720.47;5080448;28;20041;-68
2021/12/16 10:46:43;;;;;;;54.95;41.17;;;;;;;9.26;100.00;103707.03;5086922;28;20103;-68
2021/12/16 10:49:16;;;;;;;54.40;40.13;;;;;;;9.37;100.00;103720.00;5090707;28;20047;-68
2021/12/16 10:51:47;;;;;;;47.78;36.92;;;;;;;9.42;99.48;103718.97;5084472;28;20118;-68
2021/12/16 10:54:15;;;;;;;46.75;35.78;;;;;;;9.52;99.37;103721.41;5080588;27;20040;-67
2021/12/16 10:56:53;;;;;;;45.80;35.72;;;;;;;9.66;99.14;103716.63;5072778;27;20153;-68
2021/12/16 10:59:20;;;;;;;48.05;35.88;;;;;;;9.76;99.38;103712.78;5080456;28;20031;-67
2021/12/16 11:01:51;;;;;;;40.83;28.73;;;;;;;9.75;97.18;103704.88;5096728;28;20084;-68
2021/12/16 11:04:26;;;;;;;41.58;31.25;;;;;;;9.88;97.36;103721.34;5077034;28;20587;-68
2021/12/16 11:07:03;;;;;;;42.78;31.13;;;;;;;9.95;96.87;103721.13;5079669;28;20039;-68
2021/12/16 11:09:40;;;;;;;42.42;31.05;;;;;;;10.03;95.97;103726.22;5077814;28;20494;-67
2021/12/16 11:12:22;;;;;;;39.88;28.60;;;;;;;10.08;95.32;103723.44;5095389;27;20044;-67
2021/12/16 11:14:58;;;;;;;41.95;30.30;;;;;;;10.17;96.04;103729.38;5083568;28;20029;-67
2021/12/16 11:17:29;;;;;;;40.35;29.20;;;;;;;10.24;95.26;103729.16;5111732;27;20043;-67
2021/12/16 11:19:59;;;;;;;39.00;28.88;;;;;;;10.32;95.92;103728.06;5108309;28;20080;-67
2021/12/16 11:22:32;;;;;;;37.28;28.05;;;;;;;10.37;94.27;103725.28;5102667;27;20063;-67
2021/12/16 11:25:09;;;;;;;39.35;25.92;;;;;;;10.42;93.75;103739.28;5109380;28;20381;-67
2021/12/16 11:27:36;;;;;;;39.38;26.77;;;;;;;10.49;94.57;103726.69;5096033;27;20108;-67
2021/12/16 11:30:47;;;;;;;40.95;26.58;;;;;;;10.55;94.80;103734.47;5111984;28;20031;-67
2021/12/16 11:33:26;;;;;;;33.92;22.38;;;;;;;10.50;92.59;103713.34;5051698;28;20040;-67
2021/12/16 11:35:58;;;;;;;30.95;22.48;;;;;;;10.55;92.06;103731.81;5066506;28;20056;-67
2021/12/16 11:38:29;;;;;;;30.45;19.45;;;;;;;10.53;91.59;103731.88;5095941;27;20036;-67
2021/12/16 11:41:15;;;;;;;29.75;19.52;;;;;;;10.53;91.47;103728.34;5085863;28;20040;-67
2021/12/16 11:43:49;;;;;;;28.88;19.42;;;;;;;10.50;91.18;103729.31;5105169;27;20111;-68
2021/12/16 11:46:31;;;;;;;28.65;19.35;;;;;;;10.54;91.44;103725.66;5105862;27;20107;-69
2021/12/16 11:49:02;;;;;;;28.50;20.35;;;;;;;10.53;91.85;103726.56;5110968;27;20382;-69
2021/12/16 11:51:34;;;;;;;30.25;22.17;;;;;;;10.53;92.57;103715.06;5077523;28;20394;-69
2021/12/16 11:54:13;;;;;;;28.63;20.83;;;;;;;10.54;91.45;103723.00;5075629;28;20041;-68
2021/12/16 11:56:49;;;;;;;29.57;20.53;;;;;;;10.56;91.18;103714.97;5061273;28;20032;-68
2021/12/16 11:59:37;;;;;;;27.30;20.27;;;;;;;10.61;92.13;103707.72;5079089;28;20055;-68
2021/12/16 12:02:04;;;;;;;26.20;20.75;;;;;;;10.69;91.48;103724.31;5094404;28;20028;-68
2021/12/16 12:04:34;;;;;;;32.80;20.80;;;;;;;10.75;91.19;103709.94;5096394;27;20048;-69
2021/12/16 12:07:07;;;;;;;30.08;19.73;;;;;;;10.81;90.98;103712.41;5099008;28;20096;-69
2021/12/16 12:09:36;;;;;;;26.13;17.85;;;;;;;10.82;89.54;103715.94;5092483;28;20028;-68
2021/12/16 12:12:01;;;;;;;25.92;18.23;;;;;;;10.82;88.31;103714.13;5090747;28;20509;-69
2021/12/16 12:14:33;;;;;;;23.92;18.48;;;;;;;10.84;89.41;103706.13;5102327;27;20047;-69
2021/12/16 12:17:08;;;;;;;28.98;19.55;;;;;;;10.89;89.75;103712.16;5106996;28;20103;-68
2021/12/16 12:19:39;;;;;;;30.10;18.55;;;;;;;10.92;89.14;103710.31;5102904;27;20103;-69
2021/12/16 12:22:04;;;;;;;24.05;18.17;;;;;;;10.96;89.73;103710.16;5096199;28;20042;-69
2021/12/16 12:24:36;;;;;;;26.60;16.92;;;;;;;10.97;88.62;103718.09;5104300;27;20036;-69
2021/12/16 12:27:23;;;;;;;25.88;18.88;;;;;;;11.04;90.46;103710.78;5094352;28;20024;-69
2021/12/16 12:29:58;;;;;;;26.00;17.33;;;;;;;11.03;89.25;103709.06;5089832;28;20064;-69
2021/12/16 12:32:29;;;;;;;24.52;16.33;;;;;;;11.02;88.42;103704.66;5106230;27;20032;-68
2021/12/16 12:35:04;;;;;;;31.15;18.40;;;;;;;11.04;88.72;103710.78;5109926;28;20073;-68
2021/12/16 12:37:34;;;;;;;28.00;16.38;;;;;;;11.01;86.81;103716.25;5107422;27;20028;-69
2021/12/16 12:40:12;;;;;;;24.90;17.17;;;;;;;11.04;88.32;103705.47;5105733;28;20123;-69
2021/12/16 12:42:39;;;;;;;21.65;16.92;;;;;;;11.01;87.01;103700.28;5101647;27;20470;-69
2021/12/16 12:45:08;;;;;;;23.90;17.35;;;;;;;11.03;87.54;103699.28;5109363;28;20296;-68
2021/12/16 12:47:35;;;;;;;;;;;;;;;11.12;90.51;103708.75;5098966;27;20112;-68
2021/12/16 12:50:39;;;;;;;24.05;16.38;;;;;;;11.07;87.84;103708.94;5095000;28;19962;-69
2021/12/16 12:53:24;;;;;;;26.02;17.40;;;;;;;11.06;86.95;103706.31;5096607;27;20063;-69
2021/12/16 12:55:51;;;;;;;27.10;18.00;;;;;;;11.04;86.40;103702.81;5098402;28;20024;-69
2021/12/16 12:58:21;;;;;;;24.75;17.27;;;;;;;11.06;87.20;103698.34;5105378;27;20405;-69
2021/12/16 13:00:57;;;;;;;27.27;17.40;;;;;;;11.06;86.82;103698.34;5108929;28;20028;-69
2021/12/16 13:03:26;;;;;;;26.15;17.60;;;;;;;11.10;86.57;103703.47;5085250;28;20135;-69
2021/12/16 13:05:55;;;;;;;27.67;16.75;;;;;;;11.04;86.04;103690.41;5089920;28;20067;-69
2021/12/16 13:08:43;;;;;;;23.85;16.85;;;;;;;11.10;86.78;103697.31;5094627;27;20032;-69
2021/12/16 13:11:17;;;;;;;25.92;16.88;;;;;;;11.09;86.56;103692.88;5101870;28;20024;-69
2021/12/16 13:14:39;;;;;;;26.42;16.75;;;;;;;11.10;86.92;103686.66;5093322;27;20046;-69
2021/12/16 13:28:26;;;;;;;24.13;14.18;;;;;;;11.00;84.71;103690.56;5110787;27;20513;-69
2021/12/16 13:31:01;;;;;;;21.17;13.07;;;;;;;11.07;85.11;103694.75;5084703;28;20042;-69
2021/12/16 13:33:52;;;;;;;20.92;12.75;;;;;;;11.05;84.18;103693.94;5074620;28;20410;-69
2021/12/16 13:36:28;;;;;;;23.13;13.30;;;;;;;11.09;84.58;103699.09;5095114;28;20551;-69
2021/12/16 13:38:54;;;;;;;24.80;16.67;;;;;;;11.08;83.63;103692.03;5107794;27;20073;-68
2021/12/16 13:41:23;;;;;;;29.65;17.55;;;;;;;11.10;83.74;103698.16;5089514;28;20035;-69
2021/12/16 13:44:03;;;;;;;23.50;13.83;;;;;;;11.11;83.63;103710.56;5089456;27;20040;-68
2021/12/16 13:46:41;;;;;;;22.02;12.63;;;;;;;11.10;83.62;103702.63;5085244;28;20756;-69
2021/12/16 13:58:12;;;;;;;18.33;11.95;;;;;;;11.09;83.32;103703.53;5090691;27;20479;-69
2021/12/16 14:01:27;;;;;;;20.33;12.25;;;;;;;11.06;83.77;103706.31;5065000;28;20133;-69